sensor_id;sensor_type;location;lat;lon;timestamp;pressure;altitude;pressure_sealevel;temperature;humidity
9525;BME280;15940;48.734;9.112;2024-02-26T00:01:16;94646.03;;;5.62;74.62
9525;BME280;15940;48.734;9.112;2024-02-26T00:03:44;94640.41;;;5.65;74.53
9525;BME280;15940;48.734;9.112;2024-02-26T00:06:12;94642.06;;;5.68;73.75
9525;BME280;15940;48.734;9.112;2024-02-26T00:08:39;94630.13;;;5.69;74.29
9525;BME280;15940;48.734;9.112;2024-02-26T00:11:06;94626.66;;;5.74;74.09
9525;BME280;15940;48.734;9.112;2024-02-26T00:13:33;94627.66;;;5.71;73.99
9525;BME280;15940;48.734;9.112;2024-02-26T00:16:00;94626.22;;;5.70;74.46
9525;BME280;15940;48.734;9.112;2024-02-26T00:18:27;94623.28;;;5.68;74.43
9525;BME280;15940;48.734;9.112;2024-02-26T00:20:55;94628.66;;;5.68;74.78
9525;BME280;15940;48.734;9.112;2024-02-26T00:23:22;94625.50;;;5.64;74.85
9525;BME280;15940;48.734;9.112;2024-02-26T00:25:49;94623.84;;;5.61;74.46
9525;BME280;15940;48.734;9.112;2024-02-26T00:28:16;94639.44;;;5.63;74.11
9525;BME280;15940;48.734;9.112;2024-02-26T00:30:45;94625.00;;;5.66;73.89
9525;BME280;15940;48.734;9.112;2024-02-26T00:33:12;94636.69;;;5.68;73.71
9525;BME280;15940;48.734;9.112;2024-02-26T00:35:39;94624.50;;;5.67;73.08
9525;BME280;15940;48.734;9.112;2024-02-26T00:38:07;94621.56;;;5.71;74.22
9525;BME280;15940;48.734;9.112;2024-02-26T00:40:34;94620.28;;;5.78;74.33
9525;BME280;15940;48.734;9.112;2024-02-26T00:43:01;94622.22;;;5.77;74.03
9525;BME280;15940;48.734;9.112;2024-02-26T00:45:28;94624.69;;;5.75;73.94
9525;BME280;15940;48.734;9.112;2024-02-26T00:47:55;94626.13;;;5.82;73.88
9525;BME280;15940;48.734;9.112;2024-02-26T00:50:22;94630.25;;;5.83;73.95
9525;BME280;15940;48.734;9.112;2024-02-26T00:52:49;94627.38;;;5.75;72.65
9525;BME280;15940;48.734;9.112;2024-02-26T00:55:17;94613.44;;;5.77;73.36
9525;BME280;15940;48.734;9.112;2024-02-26T00:57:44;94614.69;;;5.76;73.71
9525;BME280;15940;48.734;9.112;2024-02-26T01:00:13;94613.00;;;5.72;73.81
9525;BME280;15940;48.734;9.112;2024-02-26T01:02:40;94620.28;;;5.78;73.96
9525;BME280;15940;48.734;9.112;2024-02-26T01:05:08;94619.81;;;5.73;73.12
9525;BME280;15940;48.734;9.112;2024-02-26T01:07:35;94610.75;;;5.77;73.86
9525;BME280;15940;48.734;9.112;2024-02-26T01:10:03;94600.75;;;5.77;73.73
9525;BME280;15940;48.734;9.112;2024-02-26T01:12:32;94602.66;;;5.82;73.24
9525;BME280;15940;48.734;9.112;2024-02-26T01:15:00;94593.91;;;5.76;73.20
9525;BME280;15940;48.734;9.112;2024-02-26T01:17:28;94606.63;;;5.76;73.92
9525;BME280;15940;48.734;9.112;2024-02-26T01:19:55;94595.66;;;5.73;74.16
9525;BME280;15940;48.734;9.112;2024-02-26T01:22:22;94598.34;;;5.73;73.11
9525;BME280;15940;48.734;9.112;2024-02-26T01:24:50;94600.81;;;5.71;73.15
9525;BME280;15940;48.734;9.112;2024-02-26T01:27:16;94597.91;;;5.69;74.80
9525;BME280;15940;48.734;9.112;2024-02-26T01:29:45;94603.53;;;5.66;73.75
9525;BME280;15940;48.734;9.112;2024-02-26T01:32:12;94613.75;;;5.67;73.60
9525;BME280;15940;48.734;9.112;2024-02-26T01:34:39;94622.28;;;5.71;74.18
9525;BME280;15940;48.734;9.112;2024-02-26T01:37:05;94621.56;;;5.71;73.75
9525;BME280;15940;48.734;9.112;2024-02-26T01:39:32;94628.66;;;5.68;72.91
9525;BME280;15940;48.734;9.112;2024-02-26T01:41:59;94624.75;;;5.69;72.95
9525;BME280;15940;48.734;9.112;2024-02-26T01:44:26;94633.25;;;5.73;73.31
9525;BME280;15940;48.734;9.112;2024-02-26T01:46:55;94636.88;;;5.76;73.06
9525;BME280;15940;48.734;9.112;2024-02-26T01:49:22;94633.69;;;5.78;72.66
9525;BME280;15940;48.734;9.112;2024-02-26T01:51:49;94648.13;;;5.74;71.98
9525;BME280;15940;48.734;9.112;2024-02-26T01:54:17;94640.88;;;5.69;70.36
9525;BME280;15940;48.734;9.112;2024-02-26T01:56:44;94649.59;;;5.76;71.49
9525;BME280;15940;48.734;9.112;2024-02-26T01:59:11;94645.72;;;5.71;67.80
9525;BME280;15940;48.734;9.112;2024-02-26T02:01:39;94654.97;;;5.76;65.87
9525;BME280;15940;48.734;9.112;2024-02-26T02:04:10;94653.47;;;5.80;63.35
9525;BME280;15940;48.734;9.112;2024-02-26T02:06:38;94658.75;;;5.97;61.40
9525;BME280;15940;48.734;9.112;2024-02-26T02:09:05;94665.00;;;6.05;61.60
9525;BME280;15940;48.734;9.112;2024-02-26T02:11:33;94653.19;;;6.14;59.80
9525;BME280;15940;48.734;9.112;2024-02-26T02:14:00;94656.88;;;6.16;61.60
9525;BME280;15940;48.734;9.112;2024-02-26T02:16:27;94651.63;;;6.24;61.02
9525;BME280;15940;48.734;9.112;2024-02-26T02:18:54;94649.47;;;6.22;61.76
9525;BME280;15940;48.734;9.112;2024-02-26T02:21:22;94655.22;;;6.32;62.81
9525;BME280;15940;48.734;9.112;2024-02-26T02:23:49;94662.06;;;6.33;63.14
9525;BME280;15940;48.734;9.112;2024-02-26T02:26:16;94663.97;;;6.38;63.32
9525;BME280;15940;48.734;9.112;2024-02-26T02:28:44;94666.88;;;6.40;65.67
9525;BME280;15940;48.734;9.112;2024-02-26T02:31:12;94644.66;;;6.40;65.90
9525;BME280;15940;48.734;9.112;2024-02-26T02:33:39;94651.19;;;6.44;67.03
9525;BME280;15940;48.734;9.112;2024-02-26T02:36:06;94654.13;;;6.46;67.59
9525;BME280;15940;48.734;9.112;2024-02-26T02:38:37;94661.34;;;6.57;68.15
9525;BME280;15940;48.734;9.112;2024-02-26T02:41:04;94667.75;;;6.54;68.57
9525;BME280;15940;48.734;9.112;2024-02-26T02:43:31;94669.47;;;6.51;68.41
9525;BME280;15940;48.734;9.112;2024-02-26T02:45:58;94665.09;;;6.48;65.98
9525;BME280;15940;48.734;9.112;2024-02-26T02:48:25;94659.66;;;6.54;66.52
9525;BME280;15940;48.734;9.112;2024-02-26T02:50:52;94676.25;;;6.58;65.93
9525;BME280;15940;48.734;9.112;2024-02-26T02:53:19;94678.94;;;6.58;66.29
9525;BME280;15940;48.734;9.112;2024-02-26T02:55:47;94672.53;;;6.61;66.09
9525;BME280;15940;48.734;9.112;2024-02-26T02:58:14;94654.38;;;6.67;67.74
9525;BME280;15940;48.734;9.112;2024-02-26T03:00:41;94656.78;;;6.71;67.98
9525;BME280;15940;48.734;9.112;2024-02-26T03:03:08;94655.09;;;6.68;67.92
9525;BME280;15940;48.734;9.112;2024-02-26T03:05:35;94648.06;;;6.65;68.26
9525;BME280;15940;48.734;9.112;2024-02-26T03:08:02;94660.31;;;6.60;68.57
9525;BME280;15940;48.734;9.112;2024-02-26T03:10:29;94659.38;;;6.57;68.29
9525;BME280;15940;48.734;9.112;2024-02-26T03:12:57;94663.81;;;6.55;69.42
9525;BME280;15940;48.734;9.112;2024-02-26T03:15:25;94656.72;;;6.52;67.78
9525;BME280;15940;48.734;9.112;2024-02-26T03:17:52;94655.44;;;6.58;68.28
9525;BME280;15940;48.734;9.112;2024-02-26T03:20:19;94665.69;;;6.60;67.13
9525;BME280;15940;48.734;9.112;2024-02-26T03:22:45;94661.00;;;6.66;67.65
9525;BME280;15940;48.734;9.112;2024-02-26T03:25:12;94650.41;;;6.74;65.68
9525;BME280;15940;48.734;9.112;2024-02-26T03:27:39;94652.78;;;6.77;66.32
9525;BME280;15940;48.734;9.112;2024-02-26T03:30:09;94640.50;;;6.82;66.75
9525;BME280;15940;48.734;9.112;2024-02-26T03:32:36;94640.75;;;6.84;67.44
9525;BME280;15940;48.734;9.112;2024-02-26T03:35:04;94637.81;;;6.82;68.28
9525;BME280;15940;48.734;9.112;2024-02-26T03:37:32;94626.19;;;6.74;69.60
9525;BME280;15940;48.734;9.112;2024-02-26T03:39:59;94619.63;;;6.69;70.10
9525;BME280;15940;48.734;9.112;2024-02-26T03:42:26;94617.50;;;6.62;71.65
9525;BME280;15940;48.734;9.112;2024-02-26T03:44:53;94612.94;;;6.57;71.25
9525;BME280;15940;48.734;9.112;2024-02-26T03:47:21;94606.59;;;6.54;71.93
9525;BME280;15940;48.734;9.112;2024-02-26T03:49:49;94605.22;;;6.48;72.27
9525;BME280;15940;48.734;9.112;2024-02-26T03:52:16;94613.78;;;6.46;73.85
9525;BME280;15940;48.734;9.112;2024-02-26T03:54:42;94618.44;;;6.46;74.50
9525;BME280;15940;48.734;9.112;2024-02-26T03:57:09;94625.78;;;6.45;74.65
9525;BME280;15940;48.734;9.112;2024-02-26T03:59:36;94625.31;;;6.41;75.18
9525;BME280;15940;48.734;9.112;2024-02-26T04:02:05;94612.44;;;6.34;75.21
9525;BME280;15940;48.734;9.112;2024-02-26T04:04:35;94596.38;;;6.28;75.71
9525;BME280;15940;48.734;9.112;2024-02-26T04:07:02;94600.81;;;6.26;76.11
9525;BME280;15940;48.734;9.112;2024-02-26T04:09:31;94600.56;;;6.24;76.16
9525;BME280;15940;48.734;9.112;2024-02-26T04:11:58;94601.06;;;6.22;76.52
9525;BME280;15940;48.734;9.112;2024-02-26T04:14:25;94591.13;;;6.17;76.36
9525;BME280;15940;48.734;9.112;2024-02-26T04:16:52;94604.59;;;6.12;76.81
9525;BME280;15940;48.734;9.112;2024-02-26T04:19:20;94607.06;;;6.10;76.70
9525;BME280;15940;48.734;9.112;2024-02-26T04:21:48;94599.28;;;6.06;76.60
9525;BME280;15940;48.734;9.112;2024-02-26T04:24:15;94614.97;;;6.02;75.88
9525;BME280;15940;48.734;9.112;2024-02-26T04:26:42;94617.94;;;5.98;74.69
9525;BME280;15940;48.734;9.112;2024-02-26T04:29:09;94620.38;;;5.96;74.91
9525;BME280;15940;48.734;9.112;2024-02-26T04:31:37;94620.66;;;5.93;74.77
9525;BME280;15940;48.734;9.112;2024-02-26T04:34:05;94628.44;;;5.96;75.16
9525;BME280;15940;48.734;9.112;2024-02-26T04:36:32;94630.19;;;5.94;75.04
9525;BME280;15940;48.734;9.112;2024-02-26T04:39:00;94631.19;;;5.91;75.40
9525;BME280;15940;48.734;9.112;2024-02-26T04:41:27;94635.09;;;5.90;74.62
9525;BME280;15940;48.734;9.112;2024-02-26T04:43:54;94627.28;;;5.86;74.53
9525;BME280;15940;48.734;9.112;2024-02-26T04:46:21;94638.75;;;5.87;74.71
9525;BME280;15940;48.734;9.112;2024-02-26T04:48:48;94630.25;;;5.83;73.43
9525;BME280;15940;48.734;9.112;2024-02-26T04:51:15;94629.53;;;5.82;73.82
9525;BME280;15940;48.734;9.112;2024-02-26T04:53:42;94634.91;;;5.82;73.81
9525;BME280;15940;48.734;9.112;2024-02-26T04:56:10;94638.84;;;5.76;73.34
9525;BME280;15940;48.734;9.112;2024-02-26T04:58:37;94626.72;;;5.69;73.82
9525;BME280;15940;48.734;9.112;2024-02-26T05:01:04;94627.25;;;5.62;73.76
9525;BME280;15940;48.734;9.112;2024-02-26T05:03:31;94627.50;;;5.58;73.29
9525;BME280;15940;48.734;9.112;2024-02-26T05:05:58;94627.06;;;5.54;73.76
9525;BME280;15940;48.734;9.112;2024-02-26T05:08:26;94627.06;;;5.54;74.76
9525;BME280;15940;48.734;9.112;2024-02-26T05:10:53;94630.03;;;5.51;74.25
9525;BME280;15940;48.734;9.112;2024-02-26T05:13:21;94634.16;;;5.52;74.77
9525;BME280;15940;48.734;9.112;2024-02-26T05:15:48;94636.84;;;5.52;74.81
9525;BME280;15940;48.734;9.112;2024-02-26T05:18:18;94637.28;;;5.56;75.42
9525;BME280;15940;48.734;9.112;2024-02-26T05:20:45;94637.81;;;5.54;74.75
9525;BME280;15940;48.734;9.112;2024-02-26T05:23:12;94639.75;;;5.54;76.16
9525;BME280;15940;48.734;9.112;2024-02-26T05:25:39;94635.84;;;5.55;76.21
9525;BME280;15940;48.734;9.112;2024-02-26T05:28:07;94639.03;;;5.53;76.31
9525;BME280;15940;48.734;9.112;2024-02-26T05:30:35;94643.19;;;5.49;76.80
9525;BME280;15940;48.734;9.112;2024-02-26T05:33:05;94663.72;;;5.46;75.60
9525;BME280;15940;48.734;9.112;2024-02-26T05:35:32;94680.06;;;5.48;76.60
9525;BME280;15940;48.734;9.112;2024-02-26T05:37:59;94672.97;;;5.51;77.02
9525;BME280;15940;48.734;9.112;2024-02-26T05:40:26;94679.06;;;5.51;75.86
9525;BME280;15940;48.734;9.112;2024-02-26T05:42:53;94684.19;;;5.49;75.22
9525;BME280;15940;48.734;9.112;2024-02-26T05:45:20;94677.88;;;5.47;76.76
9525;BME280;15940;48.734;9.112;2024-02-26T05:47:48;94683.47;;;5.49;78.37
9525;BME280;15940;48.734;9.112;2024-02-26T05:50:15;94685.69;;;5.50;79.79
9525;BME280;15940;48.734;9.112;2024-02-26T05:52:43;94683.47;;;5.49;80.54
9525;BME280;15940;48.734;9.112;2024-02-26T05:55:10;94688.38;;;5.50;81.18
9525;BME280;15940;48.734;9.112;2024-02-26T05:57:37;94674.50;;;5.40;82.22
9525;BME280;15940;48.734;9.112;2024-02-26T06:00:05;94676.91;;;5.44;83.06
9525;BME280;15940;48.734;9.112;2024-02-26T06:02:32;94679.13;;;5.40;82.78
9525;BME280;15940;48.734;9.112;2024-02-26T06:05:00;94681.63;;;5.32;83.66
9525;BME280;15940;48.734;9.112;2024-02-26T06:07:28;94679.25;;;5.23;84.04
9525;BME280;15940;48.734;9.112;2024-02-26T06:09:55;94685.84;;;5.22;84.22
9525;BME280;15940;48.734;9.112;2024-02-26T06:12:22;94688.75;;;5.24;86.26
9525;BME280;15940;48.734;9.112;2024-02-26T06:14:49;94684.13;;;5.19;85.55
9525;BME280;15940;48.734;9.112;2024-02-26T06:17:16;94690.75;;;5.12;85.31
9525;BME280;15940;48.734;9.112;2024-02-26T06:19:43;94692.22;;;5.08;85.74
9525;BME280;15940;48.734;9.112;2024-02-26T06:22:11;94689.53;;;5.13;85.94
9525;BME280;15940;48.734;9.112;2024-02-26T06:24:38;94689.75;;;5.15;86.33
9525;BME280;15940;48.734;9.112;2024-02-26T06:27:05;94691.00;;;5.14;86.31
9525;BME280;15940;48.734;9.112;2024-02-26T06:29:32;94696.56;;;5.22;86.86
9525;BME280;15940;48.734;9.112;2024-02-26T06:31:59;94697.25;;;5.28;87.16
9525;BME280;15940;48.734;9.112;2024-02-26T06:34:26;94696.28;;;5.31;86.33
9525;BME280;15940;48.734;9.112;2024-02-26T06:36:53;94693.09;;;5.33;86.96
9525;BME280;15940;48.734;9.112;2024-02-26T06:39:21;94700.41;;;5.32;87.08
9525;BME280;15940;48.734;9.112;2024-02-26T06:41:48;94707.50;;;5.30;86.25
9525;BME280;15940;48.734;9.112;2024-02-26T06:44:15;94704.81;;;5.30;87.40
9525;BME280;15940;48.734;9.112;2024-02-26T06:46:42;94720.16;;;5.35;87.23
9525;BME280;15940;48.734;9.112;2024-02-26T06:49:09;94719.38;;;5.40;87.67
9525;BME280;15940;48.734;9.112;2024-02-26T06:51:36;94714.78;;;5.40;87.68
9525;BME280;15940;48.734;9.112;2024-02-26T06:54:03;94725.69;;;5.54;87.58
9525;BME280;15940;48.734;9.112;2024-02-26T06:56:31;94727.84;;;5.61;87.49
9525;BME280;15940;48.734;9.112;2024-02-26T06:58:58;94734.63;;;5.67;87.13
9525;BME280;15940;48.734;9.112;2024-02-26T07:01:25;94723.09;;;5.78;86.63
9525;BME280;15940;48.734;9.112;2024-02-26T07:03:52;94742.84;;;5.81;86.90
9525;BME280;15940;48.734;9.112;2024-02-26T07:06:18;94739.13;;;5.89;86.32
9525;BME280;15940;48.734;9.112;2024-02-26T07:08:45;94742.53;;;5.95;86.11
9525;BME280;15940;48.734;9.112;2024-02-26T07:11:12;94743.94;;;6.02;85.20
9525;BME280;15940;48.734;9.112;2024-02-26T07:13:41;94753.16;;;6.12;85.18
9525;BME280;15940;48.734;9.112;2024-02-26T07:16:09;94752.88;;;6.16;84.32
9525;BME280;15940;48.734;9.112;2024-02-26T07:18:37;94752.09;;;6.21;83.78
9525;BME280;15940;48.734;9.112;2024-02-26T07:21:04;94748.19;;;6.22;83.29
9525;BME280;15940;48.734;9.112;2024-02-26T07:23:32;94759.13;;;6.29;83.92
9525;BME280;15940;48.734;9.112;2024-02-26T07:25:59;94753.03;;;6.29;83.55
9525;BME280;15940;48.734;9.112;2024-02-26T07:28:26;94752.97;;;6.35;83.63
9525;BME280;15940;48.734;9.112;2024-02-26T07:30:55;94756.41;;;6.35;83.01
9525;BME280;15940;48.734;9.112;2024-02-26T07:33:22;94768.34;;;6.40;83.10
9525;BME280;15940;48.734;9.112;2024-02-26T07:35:48;94766.59;;;6.42;82.70
9525;BME280;15940;48.734;9.112;2024-02-26T07:38:15;94768.28;;;6.45;82.05
9525;BME280;15940;48.734;9.112;2024-02-26T07:40:42;94764.09;;;6.50;82.65
9525;BME280;15940;48.734;9.112;2024-02-26T07:43:09;94769.44;;;6.55;81.61
9525;BME280;15940;48.734;9.112;2024-02-26T07:45:36;94771.63;;;6.57;80.21
9525;BME280;15940;48.734;9.112;2024-02-26T07:48:06;94775.75;;;6.58;79.61
9525;BME280;15940;48.734;9.112;2024-02-26T07:50:33;94775.94;;;6.66;80.07
9525;BME280;15940;48.734;9.112;2024-02-26T07:53:00;94775.66;;;6.69;79.61
9525;BME280;15940;48.734;9.112;2024-02-26T07:55:26;94777.31;;;6.72;79.73
9525;BME280;15940;48.734;9.112;2024-02-26T07:57:53;94771.22;;;6.72;78.34
9525;BME280;15940;48.734;9.112;2024-02-26T08:00:21;94779.47;;;6.79;nan
9525;BME280;15940;48.734;9.112;2024-02-26T08:02:48;94771.69;;;6.76;79.10
9525;BME280;15940;48.734;9.112;2024-02-26T08:05:16;94771.91;;;6.78;79.41
9525;BME280;15940;48.734;9.112;2024-02-26T08:07:43;94768.91;;;6.81;78.88
9525;BME280;15940;48.734;9.112;2024-02-26T08:10:10;94759.63;;;6.82;78.65
9525;BME280;15940;48.734;9.112;2024-02-26T08:12:37;94762.78;;;6.86;78.33
9525;BME280;15940;48.734;9.112;2024-02-26T08:15:06;94760.47;;;6.96;79.29
9525;BME280;15940;48.734;9.112;2024-02-26T08:17:33;94761.06;;;7.08;79.24
9525;BME280;15940;48.734;9.112;2024-02-26T08:20:02;94767.13;;;7.14;78.77
9525;BME280;15940;48.734;9.112;2024-02-26T08:22:30;94772.88;;;7.24;78.79
9525;BME280;15940;48.734;9.112;2024-02-26T08:24:57;94776.00;;;7.28;78.18
9525;BME280;15940;48.734;9.112;2024-02-26T08:27:24;94766.47;;;7.27;77.67
9525;BME280;15940;48.734;9.112;2024-02-26T08:29:51;94761.03;;;7.32;77.64
9525;BME280;15940;48.734;9.112;2024-02-26T08:32:17;94772.25;;;7.36;76.69
9525;BME280;15940;48.734;9.112;2024-02-26T08:34:45;94776.84;;;7.41;77.13
9525;BME280;15940;48.734;9.112;2024-02-26T08:37:12;94773.84;;;7.45;76.70
9525;BME280;15940;48.734;9.112;2024-02-26T08:39:40;94775.97;;;7.52;75.89
9525;BME280;15940;48.734;9.112;2024-02-26T08:42:07;94783.25;;;7.57;76.00
9525;BME280;15940;48.734;9.112;2024-02-26T08:44:34;94782.03;;;7.58;74.30
9525;BME280;15940;48.734;9.112;2024-02-26T08:47:01;94785.56;;;7.66;74.22
9525;BME280;15940;48.734;9.112;2024-02-26T08:49:28;94791.06;;;7.80;73.97
9525;BME280;15940;48.734;9.112;2024-02-26T08:51:55;94791.41;;;7.89;73.78
9525;BME280;15940;48.734;9.112;2024-02-26T08:54:21;94791.09;;;7.93;73.78
9525;BME280;15940;48.734;9.112;2024-02-26T08:56:51;94795.72;;;7.98;72.60
9525;BME280;15940;48.734;9.112;2024-02-26T08:59:18;94798.19;;;7.96;71.45
9525;BME280;15940;48.734;9.112;2024-02-26T09:01:48;94793.59;;;7.91;71.02
9525;BME280;15940;48.734;9.112;2024-02-26T09:04:15;94787.47;;;7.90;70.63
9525;BME280;15940;48.734;9.112;2024-02-26T09:06:41;94789.72;;;7.86;69.82
9525;BME280;15940;48.734;9.112;2024-02-26T09:09:09;94786.81;;;8.03;70.78
9525;BME280;15940;48.734;9.112;2024-02-26T09:11:36;94791.53;;;8.16;70.10
9525;BME280;15940;48.734;9.112;2024-02-26T09:14:05;94794.50;;;8.12;66.80
9525;BME280;15940;48.734;9.112;2024-02-26T09:16:31;94787.72;;;8.24;67.85
9525;BME280;15940;48.734;9.112;2024-02-26T09:18:58;94793.59;;;8.42;69.15
9525;BME280;15940;48.734;9.112;2024-02-26T09:21:25;94786.56;;;8.52;68.04
9525;BME280;15940;48.734;9.112;2024-02-26T09:23:54;94785.97;;;8.59;66.60
9525;BME280;15940;48.734;9.112;2024-02-26T09:26:21;94790.88;;;8.74;67.47
9525;BME280;15940;48.734;9.112;2024-02-26T09:28:48;94795.03;;;8.75;64.53
9525;BME280;15940;48.734;9.112;2024-02-26T09:31:17;94802.81;;;8.78;65.69
9525;BME280;15940;48.734;9.112;2024-02-26T09:33:44;94802.31;;;8.80;66.26
9525;BME280;15940;48.734;9.112;2024-02-26T09:36:11;94787.16;;;8.77;62.99
9525;BME280;15940;48.734;9.112;2024-02-26T09:38:39;94788.59;;;8.78;64.38
9525;BME280;15940;48.734;9.112;2024-02-26T09:41:06;94794.00;;;8.78;63.54
9525;BME280;15940;48.734;9.112;2024-02-26T09:43:35;94794.84;;;8.86;65.72
9525;BME280;15940;48.734;9.112;2024-02-26T09:46:04;94792.59;;;9.03;64.49
9525;BME280;15940;48.734;9.112;2024-02-26T09:48:34;94798.28;;;9.26;64.24
9525;BME280;15940;48.734;9.112;2024-02-26T09:51:03;94794.53;;;9.56;65.61
9525;BME280;15940;48.734;9.112;2024-02-26T09:53:32;94799.44;;;9.91;66.03
9525;BME280;15940;48.734;9.112;2024-02-26T09:56:01;94801.81;;;10.42;62.18
9525;BME280;15940;48.734;9.112;2024-02-26T09:58:29;94811.28;;;10.77;60.70
9525;BME280;15940;48.734;9.112;2024-02-26T10:00:56;94811.78;;;10.97;55.68
9525;BME280;15940;48.734;9.112;2024-02-26T10:03:31;94811.78;;;11.25;58.25
9525;BME280;15940;48.734;9.112;2024-02-26T10:06:02;94818.03;;;11.41;58.57
9525;BME280;15940;48.734;9.112;2024-02-26T10:08:31;94818.53;;;11.32;59.03
9525;BME280;15940;48.734;9.112;2024-02-26T10:10:59;94814.78;;;11.42;59.06
9525;BME280;15940;48.734;9.112;2024-02-26T10:13:26;94821.06;;;11.30;57.79
9525;BME280;15940;48.734;9.112;2024-02-26T10:15:53;94826.31;;;11.35;57.44
9525;BME280;15940;48.734;9.112;2024-02-26T10:18:20;94824.78;;;11.48;57.62
9525;BME280;15940;48.734;9.112;2024-02-26T10:20:59;94832.91;;;11.55;55.40
9525;BME280;15940;48.734;9.112;2024-02-26T10:23:28;94835.13;;;11.64;55.90
9525;BME280;15940;48.734;9.112;2024-02-26T10:25:56;94830.91;;;11.84;55.87
9525;BME280;15940;48.734;9.112;2024-02-26T10:28:23;94824.72;;;11.76;57.36
9525;BME280;15940;48.734;9.112;2024-02-26T10:30:52;94824.34;;;11.72;58.09
9525;BME280;15940;48.734;9.112;2024-02-26T10:33:19;94823.59;;;11.71;55.92
9525;BME280;15940;48.734;9.112;2024-02-26T10:35:46;94828.84;;;11.69;54.93
9525;BME280;15940;48.734;9.112;2024-02-26T10:38:13;94823.06;;;11.73;56.78
9525;BME280;15940;48.734;9.112;2024-02-26T10:40:44;94823.88;;;11.53;54.28
9525;BME280;15940;48.734;9.112;2024-02-26T10:43:11;94824.28;;;11.57;56.49
9525;BME280;15940;48.734;9.112;2024-02-26T10:45:39;94827.34;;;11.61;55.52
9525;BME280;15940;48.734;9.112;2024-02-26T10:48:10;94829.72;;;11.64;55.30
9525;BME280;15940;48.734;9.112;2024-02-26T10:50:38;94837.63;;;11.26;55.33
9525;BME280;15940;48.734;9.112;2024-02-26T10:53:16;94836.88;;;11.47;56.04
9525;BME280;15940;48.734;9.112;2024-02-26T10:55:49;94838.94;;;11.33;55.46
9525;BME280;15940;48.734;9.112;2024-02-26T10:58:19;94836.66;;;11.16;55.37
9525;BME280;15940;48.734;9.112;2024-02-26T11:00:48;94828.75;;;11.18;56.68
9525;BME280;15940;48.734;9.112;2024-02-26T11:03:16;94830.19;;;11.19;55.77
9525;BME280;15940;48.734;9.112;2024-02-26T11:05:47;94834.59;;;11.30;56.76
9525;BME280;15940;48.734;9.112;2024-02-26T11:08:14;94836.34;;;11.48;57.43
9525;BME280;15940;48.734;9.112;2024-02-26T11:10:42;94855.97;;;11.69;56.61
9525;BME280;15940;48.734;9.112;2024-02-26T11:13:12;94850.19;;;11.73;55.23
9525;BME280;15940;48.734;9.112;2024-02-26T11:15:41;94855.59;;;12.01;56.05
9525;BME280;15940;48.734;9.112;2024-02-26T11:18:08;94848.38;;;12.04;55.56
9525;BME280;15940;48.734;9.112;2024-02-26T11:20:38;94846.47;;;11.84;54.82
9525;BME280;15940;48.734;9.112;2024-02-26T11:23:07;94846.53;;;11.34;54.75
9525;BME280;15940;48.734;9.112;2024-02-26T11:25:35;94846.66;;;11.21;56.69
9525;BME280;15940;48.734;9.112;2024-02-26T11:28:06;94845.19;;;11.20;56.01
9525;BME280;15940;48.734;9.112;2024-02-26T11:30:41;94856.28;;;11.30;57.54
9525;BME280;15940;48.734;9.112;2024-02-26T11:33:10;94862.50;;;11.17;56.26
9525;BME280;15940;48.734;9.112;2024-02-26T11:35:38;94857.53;;;11.29;56.80
9525;BME280;15940;48.734;9.112;2024-02-26T11:38:06;94862.13;;;11.41;55.94
9525;BME280;15940;48.734;9.112;2024-02-26T11:40:37;94856.41;;;11.53;56.27
9525;BME280;15940;48.734;9.112;2024-02-26T11:43:05;94857.69;;;11.52;56.03
9525;BME280;15940;48.734;9.112;2024-02-26T11:45:52;94855.34;;;11.56;55.03
9525;BME280;15940;48.734;9.112;2024-02-26T11:48:24;94844.41;;;11.69;53.98
9525;BME280;15940;48.734;9.112;2024-02-26T11:50:52;94856.09;;;11.64;53.20
9525;BME280;15940;48.734;9.112;2024-02-26T11:53:21;94848.91;;;11.66;54.64
9525;BME280;15940;48.734;9.112;2024-02-26T11:55:48;94857.41;;;11.70;54.58
9525;BME280;15940;48.734;9.112;2024-02-26T11:58:35;94850.59;;;11.77;54.47
9525;BME280;15940;48.734;9.112;2024-02-26T12:01:40;94848.59;;;11.78;53.33
9525;BME280;15940;48.734;9.112;2024-02-26T12:04:13;94853.84;;;11.76;53.60
9525;BME280;15940;48.734;9.112;2024-02-26T12:06:51;94852.56;;;11.77;55.00
9525;BME280;15940;48.734;9.112;2024-02-26T12:09:35;94860.38;;;11.80;55.75
9525;BME280;15940;48.734;9.112;2024-02-26T12:12:04;94863.53;;;11.63;52.00
9525;BME280;15940;48.734;9.112;2024-02-26T12:14:34;94864.78;;;11.62;54.00
9525;BME280;15940;48.734;9.112;2024-02-26T12:17:03;94866.59;;;11.60;52.16
9525;BME280;15940;48.734;9.112;2024-02-26T12:19:34;94879.06;;;11.63;52.70
9525;BME280;15940;48.734;9.112;2024-02-26T12:22:01;94875.09;;;11.64;52.53
9525;BME280;15940;48.734;9.112;2024-02-26T12:24:28;94879.97;;;11.58;52.78
9525;BME280;15940;48.734;9.112;2024-02-26T12:26:55;94879.22;;;11.57;52.25
9525;BME280;15940;48.734;9.112;2024-02-26T12:29:23;94873.94;;;11.52;53.41
9525;BME280;15940;48.734;9.112;2024-02-26T12:31:50;94866.41;;;11.58;53.58
9525;BME280;15940;48.734;9.112;2024-02-26T12:34:19;94875.31;;;11.66;53.13
9525;BME280;15940;48.734;9.112;2024-02-26T12:36:46;94864.59;;;11.89;52.52
9525;BME280;15940;48.734;9.112;2024-02-26T12:39:13;94867.78;;;12.16;53.26
9525;BME280;15940;48.734;9.112;2024-02-26T12:41:40;94860.81;;;12.51;52.03
9525;BME280;15940;48.734;9.112;2024-02-26T12:44:11;94877.34;;;12.91;52.11
9525;BME280;15940;48.734;9.112;2024-02-26T12:46:39;94873.38;;;13.38;50.96
9525;BME280;15940;48.734;9.112;2024-02-26T12:49:06;94871.56;;;13.56;48.16
9525;BME280;15940;48.734;9.112;2024-02-26T12:51:35;94871.56;;;13.48;48.72
9525;BME280;15940;48.734;9.112;2024-02-26T12:54:03;94872.28;;;13.33;48.93
9525;BME280;15940;48.734;9.112;2024-02-26T12:56:30;94876.09;;;13.23;49.08
9525;BME280;15940;48.734;9.112;2024-02-26T12:58:59;94891.66;;;13.07;49.89
9525;BME280;15940;48.734;9.112;2024-02-26T13:01:26;94877.16;;;12.97;48.56
9525;BME280;15940;48.734;9.112;2024-02-26T13:03:55;94886.78;;;13.13;51.12
9525;BME280;15940;48.734;9.112;2024-02-26T13:06:22;94888.81;;;13.28;49.06
9525;BME280;15940;48.734;9.112;2024-02-26T13:08:56;94883.00;;;13.31;50.88
9525;BME280;15940;48.734;9.112;2024-02-26T13:11:24;94888.59;;;13.26;50.49
9525;BME280;15940;48.734;9.112;2024-02-26T13:13:52;94889.88;;;13.17;49.10
9525;BME280;15940;48.734;9.112;2024-02-26T13:16:19;94888.22;;;13.06;49.60
9525;BME280;15940;48.734;9.112;2024-02-26T13:18:46;94887.53;;;13.21;52.34
9525;BME280;15940;48.734;9.112;2024-02-26T13:21:14;94891.53;;;13.20;50.14
9525;BME280;15940;48.734;9.112;2024-02-26T13:23:42;94891.16;;;13.31;50.56